Time;durP1;ratioP1;P1;durP2;ratioP2;P2;SDS_P1;SDS_P2;PMS_P1;PMS_P2;Temp;Humidity;BMP_temperature;BMP_pressure;BME280_temperature;BME280_humidity;BME280_pressure;Samples;Min_cycle;Max_cycle;Signal;HPM_P1;HPM_P2
2023/01/23 00:00:16;;;;;;;;;;;;;;;11.71;71.99;103269.00;1259869;23;661;-72
2023/01/23 00:01:07;;;;;;;;;;;;;;;11.69;72.47;103281.50;1261348;23;626;-72
2023/01/23 00:01:57;;;;;;;;;;;;;;;11.70;72.14;103280.59;1260088;23;630;-72
2023/01/23 00:02:47;;;;;;;;;;;;;;;11.70;71.69;103278.81;1259389;23;616;-73
2023/01/23 00:03:38;;;;;;;;;;;;;;;11.71;72.35;103282.34;1259667;23;631;-72
2023/01/23 00:04:28;;;;;;;;;;;;;;;11.68;72.61;103279.75;1260218;23;634;-73
2023/01/23 00:05:19;;;;;;;;;;;;;;;11.68;71.82;103277.09;1261305;23;634;-72
2023/01/23 00:06:09;;;;;;;;;;;;;;;11.67;72.59;103272.66;1259414;23;634;-74
2023/01/23 00:07:02;;;;;;;;;;;;;;;11.70;72.22;103281.47;1259951;23;674;-73
2023/01/23 00:07:52;;;;;;;;;;;;;;;11.67;72.17;103278.00;1261270;23;638;-73
2023/01/23 00:08:43;;;;;;;;;;;;;;;11.69;72.46;103281.50;1261555;23;661;-73
2023/01/23 00:09:33;;;;;;;;;;;;;;;11.65;72.15;103278.06;1261638;23;622;-73
2023/01/23 00:10:24;;;;;;;;;;;;;;;11.68;71.83;103272.63;1259563;23;599;-73
2023/01/23 00:11:14;;;;;;;;;;;;;;;11.67;72.69;103272.66;1260550;23;624;-72
2023/01/23 00:12:04;;;;;;;;;;;;;;;11.66;72.03;103268.25;1261345;23;893;-73
2023/01/23 00:12:56;;;;;;;;;;;;;;;11.62;72.25;103270.16;1259646;23;705;-73
2023/01/23 00:13:46;;;;;;;;;;;;;;;11.64;72.11;103272.78;1261702;23;877;-73
2023/01/23 00:14:37;;;;;;;;;;;;;;;11.66;72.69;103266.44;1259679;23;681;-72
2023/01/23 00:15:27;;;;;;;;;;;;;;;11.67;72.39;103267.31;1259518;23;595;-72
2023/01/23 00:16:18;;;;;;;;;;;;;;;11.69;72.11;103269.03;1261624;23;641;-72
2023/01/23 00:17:08;;;;;;;;;;;;;;;11.69;71.77;103270.84;1259835;23;646;-72
2023/01/23 00:17:59;;;;;;;;;;;;;;;11.69;72.36;103265.50;1259891;23;626;-72
2023/01/23 00:18:49;;;;;;;;;;;;;;;11.67;71.79;103268.19;1259735;23;1885;-72
2023/01/23 00:19:40;;;;;;;;;;;;;;;11.68;72.57;103263.75;1261224;23;602;-72
2023/01/23 00:20:30;;;;;;;;;;;;;;;11.66;72.08;103262.91;1259314;23;654;-71
2023/01/23 00:21:21;;;;;;;;;;;;;;;11.65;72.55;103263.81;1259531;23;638;-72
2023/01/23 00:22:14;;;;;;;;;;;;;;;11.65;72.04;103263.81;1259578;23;695;-71
2023/01/23 00:23:04;;;;;;;;;;;;;;;11.64;71.93;103265.66;1261571;23;637;-73
2023/01/23 00:23:54;;;;;;;;;;;;;;;11.64;71.78;103264.78;1259568;23;619;-72
2023/01/23 00:24:45;;;;;;;;;;;;;;;11.65;71.68;103263.81;1259580;23;780;-72
2023/01/23 00:25:35;;;;;;;;;;;;;;;11.65;71.77;103258.47;1259714;23;682;-72
2023/01/23 00:26:26;;;;;;;;;;;;;;;11.66;72.45;103266.44;1259727;23;690;-72
2023/01/23 00:27:17;;;;;;;;;;;;;;;11.65;72.53;103269.16;1259766;23;621;-72
2023/01/23 00:28:08;;;;;;;;;;;;;;;11.68;71.84;103263.75;1261553;23;590;-72
2023/01/23 00:28:58;;;;;;;;;;;;;;;11.64;71.86;103262.09;1254969;23;680;-72
2023/01/23 00:29:48;;;;;;;;;;;;;;;11.66;72.10;103262.91;1255120;23;610;-72
2023/01/23 00:30:39;;;;;;;;;;;;;;;11.64;71.68;103257.66;1260940;23;665;-73
2023/01/23 00:31:29;;;;;;;;;;;;;;;11.66;72.21;103265.56;1259892;23;626;-72
2023/01/23 00:32:20;;;;;;;;;;;;;;;11.65;72.37;103255.81;1262102;23;605;-72
2023/01/23 00:33:10;;;;;;;;;;;;;;;11.61;72.07;103264.88;1259734;23;581;-73
2023/01/23 00:34:00;;;;;;;;;;;;;;;11.59;72.02;103264.91;1259348;23;650;-75
2023/01/23 00:34:51;;;;;;;;;;;;;;;11.58;72.12;103263.16;1259181;23;1198;-74
2023/01/23 00:35:41;;;;;;;;;;;;;;;11.57;72.75;103260.53;1259480;23;616;-75
2023/01/23 00:36:32;;;;;;;;;;;;;;;11.62;71.80;103269.28;1259710;23;631;-75
2023/01/23 00:37:22;;;;;;;;;;;;;;;11.61;71.99;103256.84;1260404;23;575;-74
2023/01/23 00:38:13;;;;;;;;;;;;;;;11.63;72.34;103260.34;1255038;23;650;-75
2023/01/23 00:39:03;;;;;;;;;;;;;;;11.63;72.26;103261.22;1255080;23;704;-75
2023/01/23 00:39:53;;;;;;;;;;;;;;;11.63;72.64;103257.69;1260826;23;590;-74
2023/01/23 00:40:44;;;;;;;;;;;;;;;11.64;72.79;103254.09;1259691;23;688;-74
2023/01/23 00:41:34;;;;;;;;;;;;;;;11.63;72.12;103257.69;1260058;23;634;-74
2023/01/23 00:42:25;;;;;;;;;;;;;;;11.66;71.98;103254.91;1259674;23;635;-75
2023/01/23 00:43:15;;;;;;;;;;;;;;;11.64;71.81;103257.66;1259677;23;665;-75
2023/01/23 00:44:06;;;;;;;;;;;;;;;11.64;72.20;103260.31;1259937;23;619;-75
2023/01/23 00:44:56;;;;;;;;;;;;;;;11.67;72.43;103249.50;1259683;23;654;-75
2023/01/23 00:45:46;;;;;;;;;;;;;;;11.67;72.37;103262.00;1261182;23;594;-75
2023/01/23 00:46:37;;;;;;;;;;;;;;;11.66;72.55;103254.91;1259641;23;650;-75
2023/01/23 00:47:27;;;;;;;;;;;;;;;11.67;71.86;103262.88;1261313;23;988;-74
2023/01/23 00:48:18;;;;;;;;;;;;;;;11.66;71.96;103260.25;1259696;23;661;-74
2023/01/23 00:49:08;;;;;;;;;;;;;;;11.66;72.38;103258.44;1260124;23;618;-74
2023/01/23 00:49:59;;;;;;;;;;;;;;;11.65;72.11;103253.16;1259597;23;610;-75
2023/01/23 00:50:49;;;;;;;;;;;;;;;11.66;71.76;103254.91;1260134;23;638;-75
2023/01/23 00:51:39;;;;;;;;;;;;;;;11.65;72.03;103254.03;1261413;23;638;-74
2023/01/23 00:52:30;;;;;;;;;;;;;;;11.68;71.87;103256.59;1255496;23;676;-75
2023/01/23 00:53:20;;;;;;;;;;;;;;;11.64;72.07;103252.31;1255610;23;654;-75
2023/01/23 00:54:11;;;;;;;;;;;;;;;11.64;71.85;103256.75;1254877;23;602;-74
2023/01/23 00:55:01;;;;;;;;;;;;;;;11.65;72.67;103254.03;1255172;23;614;-75
2023/01/23 00:55:53;;;;;;;;;;;;;;;11.65;72.79;103245.13;1261812;23;642;-74
2023/01/23 00:56:43;;;;;;;;;;;;;;;11.63;72.60;103244.34;1261275;23;658;-74
2023/01/23 00:57:34;;;;;;;;;;;;;;;11.63;72.08;103244.34;1255172;23;692;-74
2023/01/23 00:58:24;;;;;;;;;;;;;;;11.66;72.38;103244.22;1255718;23;725;-75
2023/01/23 00:59:15;;;;;;;;;;;;;;;11.64;71.78;103240.75;1260505;23;650;-75
2023/01/23 01:00:05;;;;;;;;;;;;;;;11.63;72.47;103244.34;1260039;23;595;-75
2023/01/23 01:00:57;;;;;;;;;;;;;;;11.63;72.49;103237.19;1261534;23;605;-73
2023/01/23 01:01:47;;;;;;;;;;;;;;;11.62;72.07;103234.56;1259744;23;614;-74
2023/01/23 01:02:37;;;;;;;;;;;;;;;11.62;72.61;103242.59;1259929;23;602;-75
2023/01/23 01:03:28;;;;;;;;;;;;;;;11.64;72.59;103232.72;1259517;23;634;-75
2023/01/23 01:04:18;;;;;;;;;;;;;;;11.63;72.58;103233.66;1259452;23;689;-75
2023/01/23 01:05:09;;;;;;;;;;;;;;;11.62;72.33;103232.78;1259610;23;669;-74
2023/01/23 01:05:59;;;;;;;;;;;;;;;11.64;72.37;103235.41;1259719;23;711;-75
2023/01/23 01:06:50;;;;;;;;;;;;;;;11.63;72.54;103228.31;1261614;23;653;-75
2023/01/23 01:07:40;;;;;;;;;;;;;;;11.65;72.39;103229.09;1261997;23;656;-74
2023/01/23 01:08:30;;;;;;;;;;;;;;;11.63;72.04;103229.19;1259797;23;678;-75
2023/01/23 01:09:21;;;;;;;;;;;;;;;11.60;72.75;103225.72;1255418;23;669;-75
2023/01/23 01:10:11;;;;;;;;;;;;;;;11.62;72.58;103232.78;1255547;23;629;-74
2023/01/23 01:11:02;;;;;;;;;;;;;;;11.60;72.58;103239.97;1261512;23;630;-74
2023/01/23 01:11:52;;;;;;;;;;;;;;;11.62;72.58;103237.25;1260097;23;666;-74
2023/01/23 01:12:43;;;;;;;;;;;;;;;11.62;72.07;103238.13;1261708;23;616;-74
2023/01/23 01:13:33;;;;;;;;;;;;;;;11.63;71.70;103245.22;1260130;23;681;-74
2023/01/23 01:14:23;;;;;;;;;;;;;;;11.65;72.34;103245.13;1261781;23;606;-74
2023/01/23 01:15:14;;;;;;;;;;;;;;;11.63;72.05;103244.34;1259914;23;599;-74
2023/01/23 01:16:04;;;;;;;;;;;;;;;11.61;72.33;103246.19;1260126;23;666;-76
2023/01/23 01:16:55;;;;;;;;;;;;;;;11.62;72.05;103246.13;1262378;23;678;-75
2023/01/23 01:17:45;;;;;;;;;;;;;;;11.64;72.52;103252.31;1259939;23;678;-75
2023/01/23 01:18:35;;;;;;;;;;;;;;;11.64;71.92;103249.63;1260006;23;1889;-74
2023/01/23 01:19:27;;;;;;;;;;;;;;;11.63;71.71;103255.00;1262218;23;641;-76
2023/01/23 01:20:17;;;;;;;;;;;;;;;11.63;72.22;103253.22;1261717;23;677;-75
2023/01/23 01:21:07;;;;;;;;;;;;;;;11.60;72.38;103258.66;1261045;23;685;-75
2023/01/23 01:21:58;;;;;;;;;;;;;;;11.62;72.57;103258.59;1260358;23;659;-75
2023/01/23 01:22:48;;;;;;;;;;;;;;;11.62;72.73;103255.94;1260164;23;610;-75
2023/01/23 01:23:39;;;;;;;;;;;;;;;11.60;72.55;103255.97;1260308;23;621;-74
2023/01/23 01:24:29;;;;;;;;;;;;;;;11.62;71.68;103258.59;1261733;23;650;-75
2023/01/23 01:25:20;;;;;;;;;;;;;;;11.63;72.09;103255.88;1261603;23;669;-75
2023/01/23 01:26:10;;;;;;;;;;;;;;;11.63;71.53;103257.69;1260260;23;696;-74
2023/01/23 01:27:00;;;;;;;;;;;;;;;11.62;71.95;103256.81;1259713;23;595;-75
2023/01/23 01:27:51;;;;;;;;;;;;;;;11.62;71.68;103258.59;1259882;23;646;-76
2023/01/23 01:28:41;;;;;;;;;;;;;;;11.61;72.25;103252.41;1260987;23;642;-75
2023/01/23 01:29:32;;;;;;;;;;;;;;;11.59;72.05;103262.25;1261604;23;699;-77
2023/01/23 01:30:24;;;;;;;;;;;;;;;11.61;72.01;103259.53;1260186;23;586;-75
2023/01/23 01:31:14;;;;;;;;;;;;;;;11.62;71.94;103256.81;1262034;23;764;-75
2023/01/23 01:32:05;;;;;;;;;;;;;;;11.62;71.73;103258.59;1255303;23;653;-76
2023/01/23 01:32:55;;;;;;;;;;;;;;;11.64;71.82;103254.09;1255585;23;653;-76
2023/01/23 01:33:47;;;;;;;;;;;;;;;11.61;71.82;103255.06;1260841;23;611;-76
2023/01/23 01:34:37;;;;;;;;;;;;;;;11.64;71.55;103251.44;1261793;23;668;-77
2023/01/23 01:35:27;;;;;;;;;;;;;;;11.63;72.32;103249.69;1262145;23;661;-77
2023/01/23 01:36:18;;;;;;;;;;;;;;;11.63;72.29;103255.88;1261602;23;665;-75
2023/01/23 01:37:08;;;;;;;;;;;;;;;11.63;72.40;103250.56;1260234;23;665;-75
2023/01/23 01:37:59;;;;;;;;;;;;;;;11.61;72.29;103252.41;1261977;23;645;-74
2023/01/23 01:38:49;;;;;;;;;;;;;;;11.60;71.92;103252.44;1260039;23;1905;-74
2023/01/23 01:39:40;;;;;;;;;;;;;;;11.64;72.02;103257.66;1261565;23;610;-75
2023/01/23 01:40:30;;;;;;;;;;;;;;;11.64;72.18;103251.44;1260450;23;756;-74
2023/01/23 01:41:20;;;;;;;;;;;;;;;11.63;72.13;103250.56;1260637;23;677;-75
2023/01/23 01:42:11;;;;;;;;;;;;;;;11.62;71.71;103255.94;1260325;23;709;-76
2023/01/23 01:43:01;;;;;;;;;;;;;;;11.62;71.92;103248.81;1260650;23;631;-76
2023/01/23 01:43:55;;;;;;;;;;;;;;;11.63;71.71;103250.56;1259836;23;650;-76
2023/01/23 01:44:46;;;;;;;;;;;;;;;11.62;72.07;103251.47;1255640;23;660;-76
2023/01/23 01:45:36;;;;;;;;;;;;;;;11.63;72.68;103253.22;1255414;23;634;-76
2023/01/23 01:46:27;;;;;;;;;;;;;;;11.61;72.37;103256.84;1260663;23;644;-76
2023/01/23 01:47:17;;;;;;;;;;;;;;;11.61;72.14;103256.84;1259521;23;637;-76
2023/01/23 01:48:07;;;;;;;;;;;;;;;11.60;72.53;103255.97;1259755;23;610;-76
2023/01/23 01:48:58;;;;;;;;;;;;;;;11.62;71.92;103258.59;1261668;23;665;-76
2023/01/23 01:49:48;;;;;;;;;;;;;;;11.62;72.30;103258.59;1260692;23;625;-76
2023/01/23 01:50:39;;;;;;;;;;;;;;;11.63;72.09;103255.88;1259825;23;623;-76
2023/01/23 01:51:29;;;;;;;;;;;;;;;11.64;71.57;103259.44;1260042;23;673;-76
2023/01/23 01:52:20;;;;;;;;;;;;;;;11.62;71.94;103253.28;1260492;23;690;-76
2023/01/23 01:53:10;;;;;;;;;;;;;;;11.62;72.45;103250.59;1260050;23;677;-76
2023/01/23 01:54:00;;;;;;;;;;;;;;;11.62;72.49;103250.59;1261866;23;657;-76
2023/01/23 01:54:52;;;;;;;;;;;;;;;11.61;71.93;103255.06;1259924;23;653;-76
2023/01/23 01:55:42;;;;;;;;;;;;;;;11.63;71.79;103255.00;1255359;23;631;-75
2023/01/23 01:56:32;;;;;;;;;;;;;;;11.62;71.59;103253.28;1255280;23;649;-75
2023/01/23 01:57:23;;;;;;;;;;;;;;;11.62;71.66;103255.94;1260845;23;586;-74
2023/01/23 01:58:13;;;;;;;;;;;;;;;11.58;72.26;103251.59;1260121;23;712;-74
2023/01/23 01:59:04;;;;;;;;;;;;;;;11.57;72.33;103249.84;1259937;23;622;-75
2023/01/23 01:59:54;;;;;;;;;;;;;;;11.59;71.65;103250.69;1261587;23;642;-74
2023/01/23 02:00:45;;;;;;;;;;;;;;;11.60;72.59;103255.09;1259832;23;658;-75
2023/01/23 02:01:35;;;;;;;;;;;;;;;11.60;72.14;103252.44;1261770;23;660;-75
2023/01/23 02:02:26;;;;;;;;;;;;;;;11.57;72.27;103256.06;1259801;23;666;-75
2023/01/23 02:03:16;;;;;;;;;;;;;;;11.57;71.62;103260.53;1259990;23;619;-75
2023/01/23 02:04:06;;;;;;;;;;;;;;;11.60;71.78;103266.66;1255357;23;681;-75
2023/01/23 02:04:57;;;;;;;;;;;;;;;11.61;71.85;103267.53;1255273;23;594;-75
2023/01/23 02:05:47;;;;;;;;;;;;;;;11.61;71.53;103268.41;1260776;23;661;-75
2023/01/23 02:06:38;;;;;;;;;;;;;;;11.59;72.61;103262.25;1261525;23;629;-75
2023/01/23 02:07:28;;;;;;;;;;;;;;;11.55;72.50;103262.38;1261640;23;657;-76
2023/01/23 02:08:18;;;;;;;;;;;;;;;11.58;71.69;103267.63;1261511;23;738;-75
2023/01/23 02:09:09;;;;;;;;;;;;;;;11.57;72.33;103265.88;1259796;23;631;-75
2023/01/23 02:10:00;;;;;;;;;;;;;;;11.56;71.66;103264.13;1260692;23;616;-74
2023/01/23 02:10:51;;;;;;;;;;;;;;;11.55;71.80;103265.03;1261357;23;645;-74
2023/01/23 02:11:42;;;;;;;;;;;;;;;11.53;71.99;103258.88;1261573;23;778;-75
2023/01/23 02:12:34;;;;;;;;;;;;;;;11.55;72.42;103265.03;1261648;23;661;-75
2023/01/23 02:13:27;;;;;;;;;;;;;;;11.57;72.64;103271.22;1261571;23;594;-74
2023/01/23 02:14:17;;;;;;;;;;;;;;;11.57;71.97;103263.22;1261635;23;661;-75
2023/01/23 02:15:08;;;;;;;;;;;;;;;11.60;71.89;103268.47;1259705;23;847;-74
2023/01/23 02:15:58;;;;;;;;;;;;;;;11.59;71.55;103269.38;1261548;23;661;-75
2023/01/23 02:16:51;;;;;;;;;;;;;;;11.57;72.35;103268.53;1259677;23;640;-74
2023/01/23 02:17:42;;;;;;;;;;;;;;;11.58;72.35;103264.97;1261530;23;1021;-74
2023/01/23 02:18:32;;;;;;;;;;;;;;;11.60;71.71;103268.47;1259561;23;654;-74
2023/01/23 02:19:22;;;;;;;;;;;;;;;11.55;71.93;103267.72;1260653;23;672;-74
2023/01/23 02:20:13;;;;;;;;;;;;;;;11.58;72.47;103270.28;1259763;23;610;-75
2023/01/23 02:21:03;;;;;;;;;;;;;;;11.58;72.42;103272.97;1260085;23;690;-75
2023/01/23 02:21:54;;;;;;;;;;;;;;;11.60;72.33;103271.13;1259720;23;737;-75
2023/01/23 02:22:45;;;;;;;;;;;;;;;11.61;72.09;103278.22;1259984;23;653;-75
2023/01/23 02:23:35;;;;;;;;;;;;;;;11.58;72.08;103273.84;1261487;23;637;-75
2023/01/23 02:24:26;;;;;;;;;;;;;;;11.60;71.77;103276.47;1259714;23;709;-75
2023/01/23 02:25:16;;;;;;;;;;;;;;;11.60;71.70;103273.81;1259745;23;633;-75
2023/01/23 02:26:07;;;;;;;;;;;;;;;11.58;72.43;103278.31;1261527;23;621;-75
2023/01/23 02:26:57;;;;;;;;;;;;;;;11.57;72.57;103276.56;1261514;23;766;-75
2023/01/23 02:27:48;;;;;;;;;;;;;;;11.58;71.96;103281.84;1261488;23;610;-75
2023/01/23 02:28:38;;;;;;;;;;;;;;;11.58;71.61;103276.50;1259781;23;630;-76
2023/01/23 02:29:29;;;;;;;;;;;;;;;11.56;72.64;103277.47;1259674;23;725;-76
2023/01/23 02:30:20;;;;;;;;;;;;;;;11.54;72.60;103281.97;1259863;23;610;-76
2023/01/23 02:31:10;;;;;;;;;;;;;;;11.54;72.37;103276.66;1260889;23;630;-75
2023/01/23 02:32:00;;;;;;;;;;;;;;;11.54;72.71;103281.97;1260016;23;681;-75
2023/01/23 02:32:51;;;;;;;;;;;;;;;11.55;72.29;103278.41;1261472;23;613;-75
2023/01/23 02:33:41;;;;;;;;;;;;;;;11.56;72.25;103280.16;1259954;23;619;-75
2023/01/23 02:34:32;;;;;;;;;;;;;;;11.53;72.25;103280.22;1259505;23;1029;-76
2023/01/23 02:35:24;;;;;;;;;;;;;;;11.52;71.98;103273.16;1259963;23;623;-76
2023/01/23 02:36:14;;;;;;;;;;;;;;;11.56;72.56;103274.81;1261609;23;671;-76
2023/01/23 02:37:05;;;;;;;;;;;;;;;11.52;71.86;103275.81;1259760;23;635;-75
2023/01/23 02:37:55;;;;;;;;;;;;;;;11.48;71.94;103278.56;1260016;23;653;-76
2023/01/23 02:38:47;;;;;;;;;;;;;;;11.48;71.81;103278.56;1255684;23;1901;-76
2023/01/23 02:39:38;;;;;;;;;;;;;;;11.46;71.95;103277.72;1255359;23;661;-76
2023/01/23 02:40:28;;;;;;;;;;;;;;;11.47;72.11;103287.50;1260679;23;633;-74
2023/01/23 02:41:19;;;;;;;;;;;;;;;11.46;72.12;103283.06;1260335;23;614;-74
2023/01/23 02:42:09;;;;;;;;;;;;;;;11.47;72.81;103276.81;1259975;23;678;-74
2023/01/23 02:43:00;;;;;;;;;;;;;;;11.45;72.70;103278.69;1259519;23;619;-74
2023/01/23 02:43:50;;;;;;;;;;;;;;;11.46;72.09;103284.91;1262146;23;688;-74
2023/01/23 02:44:41;;;;;;;;;;;;;;;11.48;72.75;103280.38;1259731;23;626;-74
2023/01/23 02:45:31;;;;;;;;;;;;;;;11.49;72.56;103280.31;1259296;23;611;-75
2023/01/23 02:46:21;;;;;;;;;;;;;;;11.51;72.04;103285.63;1259818;23;701;-74
2023/01/23 02:47:12;;;;;;;;;;;;;;;11.50;72.08;103283.88;1261398;23;645;-74
2023/01/23 02:48:04;;;;;;;;;;;;;;;11.47;71.76;103287.50;1259999;23;662;-74
2023/01/23 02:48:55;;;;;;;;;;;;;;;11.51;71.95;103295.44;1261983;23;666;-74
2023/01/23 02:49:45;;;;;;;;;;;;;;;11.48;72.66;103277.69;1259903;23;646;-74
2023/01/23 02:50:36;;;;;;;;;;;;;;;11.47;71.99;103292.84;1260188;23;623;-74
2023/01/23 02:51:26;;;;;;;;;;;;;;;11.45;72.16;103292.03;1261456;23;653;-73
2023/01/23 02:52:17;;;;;;;;;;;;;;;11.45;72.73;103294.72;1259552;23;658;-73
2023/01/23 02:53:07;;;;;;;;;;;;;;;11.46;72.20;103287.56;1260166;23;642;-72
2023/01/23 02:53:58;;;;;;;;;;;;;;;11.44;71.96;103287.63;1261435;23;635;-73
2023/01/23 02:54:48;;;;;;;;;;;;;;;11.44;72.48;103292.06;1255042;23;677;-73
2023/01/23 02:55:42;;;;;;;;;;;;;;;11.43;72.78;103285.88;1255503;23;669;-73
2023/01/23 02:56:32;;;;;;;;;;;;;;;11.42;72.72;103291.25;1261518;23;657;-73
2023/01/23 02:57:23;;;;;;;;;;;;;;;11.44;72.19;103287.63;1261590;23;673;-73
2023/01/23 03:00:32;;;;;;;;;;;;;;;11.46;72.72;103290.25;1261481;23;627;-74
2023/01/23 03:01:22;;;;;;;;;;;;;;;11.46;72.66;103299.09;1259880;23;661;-74
2023/01/23 03:02:14;;;;;;;;;;;;;;;11.47;72.62;103294.63;1261695;23;622;-73
2023/01/23 03:03:04;;;;;;;;;;;;;;;11.47;72.63;103287.50;1261542;23;637;-73
2023/01/23 03:03:55;;;;;;;;;;;;;;;11.51;71.89;103295.44;1259676;23;648;-73
2023/01/23 03:04:45;;;;;;;;;;;;;;;11.51;71.89;103298.09;1261769;23;689;-73
2023/01/23 03:05:36;;;;;;;;;;;;;;;11.52;72.58;103295.38;1259699;23;658;-73
2023/01/23 03:06:27;;;;;;;;;;;;;;;11.52;71.92;103299.84;1262030;23;708;-74
2023/01/23 03:07:17;;;;;;;;;;;;;;;11.54;72.48;103287.31;1262232;23;634;-73
2023/01/23 03:08:08;;;;;;;;;;;;;;;11.51;71.94;103296.31;1259793;23;694;-75
2023/01/23 03:08:59;;;;;;;;;;;;;;;11.50;72.08;103289.22;1260525;23;789;-73
2023/01/23 03:09:49;;;;;;;;;;;;;;;11.47;71.73;103299.97;1261401;23;650;-73
2023/01/23 03:10:40;;;;;;;;;;;;;;;11.45;72.16;103294.72;1261590;23;581;-73
2023/01/23 03:11:31;;;;;;;;;;;;;;;11.49;71.69;103299.00;1261906;23;797;-74
2023/01/23 03:12:21;;;;;;;;;;;;;;;11.51;72.56;103292.75;1261398;23;574;-74
2023/01/23 03:13:12;;;;;;;;;;;;;;;11.49;72.08;103296.34;1259907;23;634;-74
2023/01/23 03:14:02;;;;;;;;;;;;;;;11.51;72.03;103298.09;1261737;23;626;-74
2023/01/23 03:14:54;;;;;;;;;;;;;;;11.49;72.42;103296.34;1255169;23;626;-74
2023/01/23 03:15:45;;;;;;;;;;;;;;;11.48;72.46;103304.41;1255085;23;724;-74
2023/01/23 03:16:35;;;;;;;;;;;;;;;11.46;71.62;103301.75;1261245;23;677;-74
2023/01/23 03:17:27;;;;;;;;;;;;;;;11.46;71.91;103296.44;1259703;23;602;-74
2023/01/23 03:18:18;;;;;;;;;;;;;;;11.48;72.50;103302.59;1261551;23;763;-74
2023/01/23 03:19:08;;;;;;;;;;;;;;;11.51;72.46;103303.44;1261711;23;701;-75
2023/01/23 03:19:58;;;;;;;;;;;;;;;11.49;71.82;103298.13;1261435;23;633;-74
2023/01/23 03:20:49;;;;;;;;;;;;;;;11.46;72.27;103301.75;1260097;23;631;-74
2023/01/23 03:21:39;;;;;;;;;;;;;;;11.47;71.75;103303.53;1260053;23;619;-74
2023/01/23 03:22:30;;;;;;;;;;;;;;;11.48;72.43;103305.28;1261495;23;634;-74
2023/01/23 03:23:20;;;;;;;;;;;;;;;11.46;72.49;103295.59;1260468;23;674;-75
2023/01/23 03:24:11;;;;;;;;;;;;;;;11.46;71.75;103300.91;1261374;23;641;-74
2023/01/23 03:25:01;;;;;;;;;;;;;;;11.43;71.78;103299.22;1255174;23;598;-73
2023/01/23 03:25:57;;;;;;;;;;;;;;;11.47;71.58;103307.97;1255697;23;618;-73
2023/01/23 03:26:47;;;;;;;;;;;;;;;11.46;71.83;103300.91;1261478;23;602;-73
2023/01/23 03:27:38;;;;;;;;;;;;;;;11.45;71.51;103297.38;1259567;23;665;-73
2023/01/23 03:30:46;;;;;;;;;;;;;;;11.48;71.83;103294.59;1261407;23;633;-73
2023/01/23 03:31:37;;;;;;;;;;;;;;;11.46;72.11;103296.44;1259683;23;613;-73
2023/01/23 03:32:28;;;;;;;;;;;;;;;11.46;72.43;103301.75;1260528;23;735;-73
2023/01/23 03:33:18;;;;;;;;;;;;;;;11.43;72.54;103301.88;1261381;23;614;-73
2023/01/23 03:34:09;;;;;;;;;;;;;;;11.47;71.81;103300.84;1261370;23;661;-72
2023/01/23 03:34:59;;;;;;;;;;;;;;;11.47;72.16;103297.31;1255494;23;1433;-72
2023/01/23 03:35:49;;;;;;;;;;;;;;;11.48;71.76;103302.59;1255067;23;639;-73
2023/01/23 03:36:40;;;;;;;;;;;;;;;11.48;72.23;103299.94;1255222;23;650;-74
2023/01/23 03:37:31;;;;;;;;;;;;;;;11.48;72.19;103299.94;1256197;23;637;-73
2023/01/23 03:38:21;;;;;;;;;;;;;;;11.51;71.49;103303.44;1261416;23;618;-74
2023/01/23 03:41:30;;;;;;;;;;;;;;;11.45;71.75;103307.19;1261317;23;614;-73
2023/01/23 03:42:21;;;;;;;;;;;;;;;11.46;72.24;103307.09;1259763;23;615;-74
2023/01/23 03:43:11;;;;;;;;;;;;;;;11.43;71.53;103301.88;1259792;23;627;-73
2023/01/23 03:44:01;;;;;;;;;;;;;;;11.47;72.23;103307.97;1255226;23;714;-73
2023/01/23 03:44:52;;;;;;;;;;;;;;;11.46;72.01;103304.44;1254989;23;614;-74
2023/01/23 03:45:42;;;;;;;;;;;;;;;11.44;71.79;103306.31;1260724;23;697;-74
2023/01/23 03:46:33;;;;;;;;;;;;;;;11.45;72.30;103305.38;1259535;23;689;-74
2023/01/23 03:47:25;;;;;;;;;;;;;;;11.48;72.38;103305.28;1259747;23;655;-74
2023/01/23 03:48:15;;;;;;;;;;;;;;;11.47;71.58;103303.53;1260729;23;646;-74
2023/01/23 03:49:06;;;;;;;;;;;;;;;11.49;72.35;103307.03;1259852;23;669;-74
2023/01/23 03:49:56;;;;;;;;;;;;;;;11.48;71.82;103297.25;1261326;23;618;-74
2023/01/23 03:50:46;;;;;;;;;;;;;;;11.49;72.30;103306.16;1260008;23;650;-74
2023/01/23 03:51:37;;;;;;;;;;;;;;;11.48;71.74;103305.28;1259584;23;658;-74
2023/01/23 03:52:27;;;;;;;;;;;;;;;11.47;72.29;103306.19;1261603;23;594;-74
2023/01/23 03:53:18;;;;;;;;;;;;;;;11.48;72.20;103305.28;1261624;23;653;-74
2023/01/23 03:54:08;;;;;;;;;;;;;;;11.48;72.12;103305.28;1261455;23;653;-74
2023/01/23 03:54:59;;;;;;;;;;;;;;;11.46;71.50;103309.78;1261854;23;638;-74
2023/01/23 03:55:49;;;;;;;;;;;;;;;11.50;72.08;103313.25;1259666;23;615;-73
2023/01/23 03:56:40;;;;;;;;;;;;;;;11.45;71.62;103308.06;1259968;23;578;-74
2023/01/23 03:57:30;;;;;;;;;;;;;;;11.47;71.80;103313.31;1261994;23;622;-74
2023/01/23 03:58:21;;;;;;;;;;;;;;;11.47;71.79;103319.53;1259625;23;626;-74
2023/01/23 03:59:11;;;;;;;;;;;;;;;11.47;72.10;103316.88;1255053;23;681;-74
2023/01/23 04:00:02;;;;;;;;;;;;;;;11.46;72.05;103316.94;1255399;23;599;-75
2023/01/23 04:00:52;;;;;;;;;;;;;;;11.44;71.57;103314.31;1260500;23;606;-74
2023/01/23 04:01:43;;;;;;;;;;;;;;;11.44;71.58;103313.44;1259964;23;756;-74
2023/01/23 04:02:33;;;;;;;;;;;;;;;11.47;72.08;103314.19;1260061;23;626;-74
2023/01/23 04:03:23;;;;;;;;;;;;;;;11.47;71.73;103318.66;1261306;23;654;-74
2023/01/23 04:04:14;;;;;;;;;;;;;;;11.47;71.81;103314.19;1260098;23;626;-74
2023/01/23 04:05:04;;;;;;;;;;;;;;;11.45;72.04;103312.53;1261294;23;633;-74
2023/01/23 04:05:55;;;;;;;;;;;;;;;11.41;71.83;103314.41;1259505;23;649;-74
2023/01/23 04:06:46;;;;;;;;;;;;;;;11.41;72.31;103317.06;1261620;23;633;-74
2023/01/23 04:07:36;;;;;;;;;;;;;;;11.40;72.35;103317.09;1259548;23;645;-74
2023/01/23 04:08:28;;;;;;;;;;;;;;;11.42;71.67;103317.94;1261388;23;637;-74
2023/01/23 04:09:18;;;;;;;;;;;;;;;11.41;71.80;103325.06;1261812;23;688;-74
2023/01/23 04:10:09;;;;;;;;;;;;;;;11.40;72.18;103320.66;1261375;23;613;-75
2023/01/23 04:10:59;;;;;;;;;;;;;;;11.41;72.43;103321.53;1261250;23;645;-74
2023/01/23 04:11:50;;;;;;;;;;;;;;;11.42;72.37;103321.50;1259991;23;650;-74
2023/01/23 04:12:40;;;;;;;;;;;;;;;11.40;71.83;103326.00;1259087;23;618;-74
2023/01/23 04:13:31;;;;;;;;;;;;;;;11.43;71.65;103327.72;1260002;23;677;-74
2023/01/23 04:14:21;;;;;;;;;;;;;;;11.40;72.22;103318.00;1259981;23;650;-74
2023/01/23 04:15:11;;;;;;;;;;;;;;;11.42;71.69;103321.50;1259813;23;646;-74
2023/01/23 04:16:02;;;;;;;;;;;;;;;11.41;72.34;103318.88;1259863;23;618;-74
2023/01/23 04:16:52;;;;;;;;;;;;;;;11.43;72.14;103317.91;1259618;23;559;-74
2023/01/23 04:17:43;;;;;;;;;;;;;;;11.43;71.76;103319.69;1259506;23;618;-74
2023/01/23 04:18:33;;;;;;;;;;;;;;;11.45;72.45;103326.75;1260379;23;665;-74
2023/01/23 04:19:24;;;;;;;;;;;;;;;11.43;71.55;103317.03;1259830;23;673;-74
2023/01/23 04:20:14;;;;;;;;;;;;;;;11.43;72.12;103319.69;1259526;23;630;-74
2023/01/23 04:21:04;;;;;;;;;;;;;;;11.41;71.56;103316.19;1260281;23;654;-74
2023/01/23 04:21:55;;;;;;;;;;;;;;;11.39;72.51;103321.56;1259379;23;673;-75
2023/01/23 04:22:45;;;;;;;;;;;;;;;11.37;72.20;103318.06;1261320;23;623;-73
2023/01/23 04:23:36;;;;;;;;;;;;;;;11.37;71.67;103318.06;1262146;23;617;-74
2023/01/23 04:24:26;;;;;;;;;;;;;;;11.38;71.84;103314.47;1259925;23;641;-74
2023/01/23 04:25:17;;;;;;;;;;;;;;;11.38;71.70;103314.47;1259685;23;630;-74
2023/01/23 04:26:07;;;;;;;;;;;;;;;11.37;72.31;103318.06;1259796;23;614;-74
2023/01/23 04:26:58;;;;;;;;;;;;;;;11.34;71.74;103310.16;1258891;23;662;-74
2023/01/23 04:27:48;;;;;;;;;;;;;;;11.35;72.00;103309.22;1260255;23;627;-73
2023/01/23 04:28:38;;;;;;;;;;;;;;;11.33;72.38;103304.84;1259805;23;638;-74
2023/01/23 04:29:29;;;;;;;;;;;;;;;11.32;71.93;103314.66;1259504;23;622;-74
2023/01/23 04:30:19;;;;;;;;;;;;;;;11.34;71.84;103310.16;1260102;23;642;-73
2023/01/23 04:31:10;;;;;;;;;;;;;;;11.35;72.20;103309.22;1261215;23;594;-73
2023/01/23 04:32:00;;;;;;;;;;;;;;;11.37;72.08;103311.84;1259643;23;606;-74
2023/01/23 04:32:51;;;;;;;;;;;;;;;11.36;72.24;103319.00;1260385;23;602;-74
2023/01/23 04:33:41;;;;;;;;;;;;;;;11.37;71.89;103311.84;1259652;23;623;-73